createdAt,value
2022-09-24T00:01:21.000Z,83.96
2022-09-24T00:03:55.707Z,83.56
2022-09-24T00:06:23.383Z,83.57
2022-09-24T00:08:51.850Z,83.03
2022-09-24T00:11:21.584Z,83.67
2022-09-24T00:13:49.616Z,83.73
2022-09-24T00:16:17.509Z,83.55
2022-09-24T00:18:44.497Z,84.13
2022-09-24T00:21:16.706Z,84.32
2022-09-24T00:23:43.602Z,84.59
2022-09-24T00:26:31.838Z,84.80
2022-09-24T00:28:59.183Z,85.32
2022-09-24T00:31:26.334Z,85.40
2022-09-24T00:33:54.393Z,85.24
2022-09-24T00:36:22.263Z,85.27
2022-09-24T00:38:54.237Z,85.33
2022-09-24T00:41:22.189Z,85.35
2022-09-24T00:43:49.675Z,85.31
2022-09-24T00:46:18.983Z,85.54
2022-09-24T00:48:46.907Z,85.27
2022-09-24T00:51:19.626Z,85.67
2022-09-24T00:53:50.142Z,85.49
2022-09-24T00:56:17.355Z,86.04
2022-09-24T00:58:50.285Z,85.67
2022-09-24T01:01:18.044Z,85.64
2022-09-24T01:03:45.802Z,85.58
2022-09-24T01:06:13.082Z,85.85
2022-09-24T01:08:40.470Z,85.82
2022-09-24T01:11:31.705Z,85.52
2022-09-24T01:14:04.234Z,85.52
2022-09-24T01:16:43.231Z,85.30
2022-09-24T01:19:19.928Z,85.08
2022-09-24T01:21:54.176Z,85.42
2022-09-24T01:24:38.704Z,85.43
2022-09-24T01:27:20.357Z,85.13
2022-09-24T01:29:53.436Z,85.12
2022-09-24T01:32:32.304Z,84.90
2022-09-24T01:35:02.868Z,85.10
2022-09-24T01:37:31.959Z,85.03
2022-09-24T01:39:59.041Z,84.97
2022-09-24T01:42:27.729Z,85.08
2022-09-24T01:44:55.160Z,84.94
2022-09-24T01:47:34.101Z,85.35
2022-09-24T01:50:02.078Z,85.47
2022-09-24T01:52:34.128Z,85.80
2022-09-24T01:55:01.641Z,85.88
2022-09-24T01:57:32.209Z,85.80
2022-09-24T02:00:03.253Z,85.53
2022-09-24T02:02:46.267Z,86.11
2022-09-24T02:05:30.892Z,86.71
2022-09-24T02:08:14.709Z,86.50
2022-09-24T02:10:57.221Z,86.36
2022-09-24T02:13:26.521Z,86.39
2022-09-24T02:15:59.055Z,85.89
2022-09-24T02:18:28.645Z,85.98
2022-09-24T02:20:55.497Z,85.56
2022-09-24T02:23:23.420Z,85.82
2022-09-24T02:25:58.087Z,86.47
2022-09-24T02:28:25.097Z,86.42
2022-09-24T02:31:03.958Z,86.18
2022-09-24T02:33:51.287Z,86.62
2022-09-24T02:36:18.708Z,86.26
2022-09-24T02:38:46.891Z,86.30
2022-09-24T02:41:13.941Z,86.49
2022-09-24T02:43:41.192Z,86.26
2022-09-24T02:46:11.315Z,86.57
2022-09-24T02:48:38.171Z,86.38
2022-09-24T02:51:05.562Z,86.48
2022-09-24T02:53:33.048Z,86.36
2022-09-24T02:56:00.974Z,86.23
2022-09-24T02:58:28.749Z,86.34
2022-09-24T03:00:56.591Z,86.67
2022-09-24T03:03:24.282Z,86.37
2022-09-24T03:05:53.141Z,86.34
2022-09-24T03:08:24.312Z,86.35
2022-09-24T03:10:51.332Z,86.29
2022-09-24T03:13:18.828Z,86.12
2022-09-24T03:15:46.499Z,86.22
2022-09-24T03:18:14.202Z,86.69
2022-09-24T03:20:41.149Z,86.95
2022-09-24T03:23:07.805Z,86.95
2022-09-24T03:25:34.482Z,86.78
2022-09-24T03:28:01.250Z,86.89
2022-09-24T03:30:46.237Z,86.86
2022-09-24T03:33:13.894Z,86.84
2022-09-24T03:35:40.536Z,86.64
2022-09-24T03:38:07.183Z,86.53
2022-09-24T03:40:34.031Z,86.32
2022-09-24T03:43:00.712Z,86.34
2022-09-24T03:45:27.347Z,85.89
2022-09-24T03:47:53.960Z,86.39
2022-09-24T03:50:20.624Z,86.72
2022-09-24T03:52:47.253Z,86.80
2022-09-24T03:55:13.860Z,86.83
2022-09-24T03:57:40.504Z,86.82
2022-09-24T04:00:07.933Z,86.87
2022-09-24T04:02:34.630Z,87.22
2022-09-24T04:05:01.856Z,87.46
2022-09-24T04:07:28.472Z,86.58
2022-09-24T04:09:55.112Z,86.75
2022-09-24T04:12:21.741Z,87.37
2022-09-24T04:14:48.343Z,87.22
2022-09-24T04:17:15.889Z,87.53
2022-09-24T04:19:43.313Z,87.77
2022-09-24T04:22:10.025Z,87.80
2022-09-24T04:24:36.622Z,87.43
2022-09-24T04:27:03.388Z,87.43
2022-09-24T04:29:30.038Z,87.40
2022-09-24T04:31:56.873Z,86.93
2022-09-24T04:34:23.473Z,86.97
2022-09-24T04:36:50.092Z,87.52
2022-09-24T04:39:16.749Z,87.81
2022-09-24T04:41:43.501Z,87.98
2022-09-24T04:44:11.366Z,87.58
2022-09-24T04:46:38.160Z,87.24
2022-09-24T04:49:06.028Z,87.37
2022-09-24T04:51:34.340Z,87.75
2022-09-24T04:54:02.926Z,87.75
2022-09-24T04:56:31.004Z,88.33
2022-09-24T04:58:58.756Z,88.38
2022-09-24T05:01:26.211Z,88.76
2022-09-24T05:03:53.750Z,88.71
2022-09-24T05:06:20.437Z,88.16
2022-09-24T05:08:47.202Z,87.79
2022-09-24T05:11:13.882Z,87.86
2022-09-24T05:13:40.604Z,87.99
2022-09-24T05:16:07.387Z,88.19
2022-09-24T05:18:34.077Z,88.15
2022-09-24T05:21:00.700Z,87.82
2022-09-24T05:23:27.329Z,87.90
2022-09-24T05:26:12.769Z,88.80
2022-09-24T05:28:40.619Z,89.35
2022-09-24T05:31:08.584Z,88.86
2022-09-24T05:33:36.265Z,89.24
2022-09-24T05:36:02.873Z,89.12
2022-09-24T05:38:30.093Z,88.90
2022-09-24T05:40:56.780Z,88.82
2022-09-24T05:43:23.921Z,88.59
2022-09-24T05:45:50.669Z,88.82
2022-09-24T05:48:17.369Z,88.91
2022-09-24T05:50:43.989Z,88.81
2022-09-24T05:53:10.661Z,89.22
2022-09-24T05:55:37.301Z,89.67
2022-09-24T05:58:08.057Z,89.97
2022-09-24T06:00:36.135Z,89.79
2022-09-24T06:03:09.229Z,90.02
2022-09-24T06:05:36.027Z,90.26
2022-09-24T06:08:04.390Z,90.37
2022-09-24T06:10:31.270Z,90.22
2022-09-24T06:12:57.917Z,90.60
2022-09-24T06:15:27.339Z,90.43
2022-09-24T06:17:54.977Z,91.18
2022-09-24T06:20:22.844Z,90.69
2022-09-24T06:22:50.704Z,90.75
2022-09-24T06:25:17.323Z,90.67
2022-09-24T06:27:43.979Z,90.84
2022-09-24T06:30:11.921Z,90.63
2022-09-24T06:32:38.700Z,90.23
2022-09-24T06:35:06.242Z,90.27
2022-09-24T06:37:34.119Z,90.62
2022-09-24T06:40:00.885Z,90.76
2022-09-24T06:42:27.933Z,91.23
2022-09-24T06:44:54.553Z,90.83
2022-09-24T06:47:21.171Z,91.19
2022-09-24T06:49:50.340Z,91.38
2022-09-24T06:52:16.993Z,91.05
2022-09-24T06:54:43.590Z,91.67
2022-09-24T06:57:10.211Z,91.97
2022-09-24T06:59:36.820Z,92.10
2022-09-24T07:02:03.544Z,91.95
2022-09-24T07:04:30.276Z,93.06
2022-09-24T07:07:15.264Z,93.49
2022-09-24T07:09:41.955Z,92.80
2022-09-24T07:12:08.973Z,93.23
2022-09-24T07:14:35.587Z,93.11
2022-09-24T07:17:02.429Z,93.31
2022-09-24T07:19:29.133Z,93.29
2022-09-24T07:21:55.770Z,93.29
2022-09-24T07:24:22.396Z,93.84
2022-09-24T07:26:49.242Z,93.99
2022-09-24T07:29:16.267Z,93.81
2022-09-24T07:31:42.957Z,94.01
2022-09-24T07:34:09.718Z,94.16
2022-09-24T07:36:36.751Z,94.43
2022-09-24T07:39:03.510Z,94.67
2022-09-24T07:41:30.267Z,95.04
2022-09-24T07:43:56.961Z,95.32
2022-09-24T07:46:24.882Z,95.15
2022-09-24T07:48:56.475Z,95.34
2022-09-24T07:51:24.064Z,95.94
2022-09-24T07:53:50.760Z,95.93
2022-09-24T07:56:17.768Z,96.03
2022-09-24T07:58:44.497Z,96.43
2022-09-24T08:01:11.205Z,97.17
2022-09-24T08:03:40.827Z,96.68
2022-09-24T08:06:07.755Z,97.23
2022-09-24T08:08:34.460Z,96.88
2022-09-24T08:11:05.350Z,97.15
2022-09-24T08:13:31.991Z,97.62
2022-09-24T08:16:01.851Z,97.74
2022-09-24T08:18:31.829Z,97.86
2022-09-24T08:21:06.846Z,97.58
2022-09-24T08:23:34.470Z,97.78
2022-09-24T08:26:01.143Z,97.85
2022-09-24T08:28:28.618Z,97.27
2022-09-24T08:31:03.750Z,97.06
2022-09-24T08:33:32.276Z,96.75
2022-09-24T08:36:06.918Z,97.38
2022-09-24T08:38:33.515Z,97.52
2022-09-24T08:41:11.780Z,97.70
2022-09-24T08:44:45.253Z,97.45
2022-09-24T08:47:23.585Z,96.97
2022-09-24T08:50:07.228Z,97.13
2022-09-24T08:52:36.608Z,97.58
2022-09-24T08:55:08.911Z,97.21
2022-09-24T08:57:40.754Z,97.63
2022-09-24T09:00:13.395Z,98.14
2022-09-24T09:02:42.765Z,97.68
2022-09-24T09:05:27.618Z,97.79
2022-09-24T09:08:42.187Z,98.13
2022-09-24T09:11:03.204Z,99.80
2022-09-24T09:13:59.793Z,99.16
2022-09-24T09:16:55.922Z,97.71
2022-09-24T09:19:28.212Z,98.42
2022-09-24T09:22:01.832Z,98.13
2022-09-24T09:24:49.862Z,99.24
2022-09-24T09:27:17.803Z,99.74
2022-09-24T09:29:48.006Z,98.96
2022-09-24T09:32:31.641Z,98.24
2022-09-24T09:35:22.919Z,98.70
2022-09-24T09:38:25.520Z,98.56
2022-09-24T09:41:00.175Z,97.72
2022-09-24T09:43:27.902Z,97.44
2022-09-24T09:46:09.812Z,97.08
2022-09-24T09:48:47.932Z,97.48
2022-09-24T09:51:23.317Z,97.13
2022-09-24T09:54:00.678Z,96.50
2022-09-24T09:56:41.634Z,95.34
2022-09-24T09:59:10.787Z,94.92
2022-09-24T10:01:42.210Z,95.62
2022-09-24T10:04:37.617Z,95.33
2022-09-24T10:07:17.595Z,95.11
2022-09-24T10:09:45.739Z,94.34
2022-09-24T10:12:22.079Z,93.87
2022-09-24T10:15:06.262Z,93.16
2022-09-24T10:17:38.086Z,91.72
2022-09-24T10:20:09.956Z,91.44
2022-09-24T10:22:37.665Z,91.44
2022-09-24T10:25:04.842Z,91.39
2022-09-24T10:27:36.384Z,91.70
2022-09-24T10:30:32.107Z,90.31
2022-09-24T10:32:59.809Z,91.25
2022-09-24T10:35:38.667Z,90.63
2022-09-24T10:38:17.211Z,90.25
2022-09-24T10:40:44.079Z,91.26
2022-09-24T10:43:16.948Z,90.49
2022-09-24T10:46:08.349Z,89.55
2022-09-24T10:48:48.681Z,90.12
2022-09-24T10:51:39.350Z,89.69
2022-09-24T10:54:26.265Z,90.77
2022-09-24T10:56:55.092Z,90.83
2022-09-24T10:59:39.698Z,89.01
2022-09-24T11:02:29.154Z,89.41
2022-09-24T11:05:11.509Z,89.57
2022-09-24T11:07:56.701Z,90.20
2022-09-24T11:10:49.470Z,89.31
2022-09-24T11:13:37.254Z,89.98
2022-09-24T11:16:29.014Z,89.37
2022-09-24T11:19:37.349Z,87.90
2022-09-24T11:22:03.959Z,88.01
2022-09-24T11:24:51.495Z,88.92
2022-09-24T11:28:09.909Z,88.09
2022-09-24T11:30:57.639Z,88.53
2022-09-24T11:33:46.987Z,88.06
2022-09-24T11:36:50.474Z,87.95
2022-09-24T11:39:39.080Z,86.71
2022-09-24T11:42:53.656Z,85.82
2022-09-24T11:45:47.760Z,84.90
2022-09-24T11:48:36.266Z,85.51
2022-09-24T11:51:05.469Z,85.98
2022-09-24T11:53:54.968Z,84.83
2022-09-24T11:56:25.073Z,84.62
2022-09-24T11:59:11.625Z,85.67
2022-09-24T12:01:41.131Z,86.15
2022-09-24T12:04:32.264Z,87.03
2022-09-24T12:07:04.219Z,86.69
2022-09-24T12:09:32.136Z,86.75
2022-09-24T12:12:04.097Z,86.47
2022-09-24T12:14:43.023Z,86.00
2022-09-24T12:17:19.154Z,87.11
2022-09-24T12:19:54.035Z,86.20
2022-09-24T12:22:21.963Z,86.60
2022-09-24T12:24:52.634Z,86.19
2022-09-24T12:27:36.292Z,86.13
2022-09-24T12:30:33.555Z,84.82
2022-09-24T12:33:25.731Z,85.47
2022-09-24T12:36:06.042Z,86.35
2022-09-24T12:38:37.667Z,85.88
2022-09-24T12:41:29.221Z,84.76
2022-09-24T12:44:07.549Z,83.68
2022-09-24T12:46:47.206Z,83.53
2022-09-24T12:49:34.713Z,84.79
2022-09-24T12:52:22.235Z,85.88
2022-09-24T12:54:54.981Z,85.17
2022-09-24T12:57:26.595Z,85.94
2022-09-24T12:59:55.830Z,85.54
2022-09-24T13:02:24.045Z,84.69
2022-09-24T13:05:01.744Z,84.23
2022-09-24T13:07:35.199Z,85.08
2022-09-24T13:10:17.127Z,85.59
2022-09-24T13:12:45.001Z,85.21
2022-09-24T13:15:28.601Z,85.60
2022-09-24T13:18:10.919Z,86.89
2022-09-24T13:20:40.224Z,88.33
2022-09-24T13:23:19.802Z,89.24
2022-09-24T13:25:56.410Z,89.12
2022-09-24T13:28:29.255Z,89.89
2022-09-24T13:31:10.791Z,91.36
2022-09-24T13:33:43.686Z,90.49
2022-09-24T13:36:16.453Z,89.94
2022-09-24T13:39:04.161Z,89.51
2022-09-24T13:41:49.076Z,89.64
2022-09-24T13:44:38.897Z,89.34
2022-09-24T13:47:14.643Z,90.12
2022-09-24T13:49:48.408Z,89.80
2022-09-24T13:52:36.160Z,90.11
2022-09-24T13:55:31.068Z,90.69
2022-09-24T13:57:58.254Z,89.71
2022-09-24T14:00:29.543Z,89.22
2022-09-24T14:03:01.253Z,89.15
2022-09-24T14:05:29.277Z,89.38
2022-09-24T14:08:03.309Z,90.01
2022-09-24T14:10:30.569Z,90.39
2022-09-24T14:13:17.596Z,90.37
2022-09-24T14:16:13.510Z,91.68
2022-09-24T14:18:40.510Z,92.02
2022-09-24T14:21:23.676Z,92.76
2022-09-24T14:24:02.783Z,93.00
2022-09-24T14:26:37.112Z,93.63
2022-09-24T14:29:29.243Z,93.83
2022-09-24T14:32:03.089Z,94.33
2022-09-24T14:34:36.065Z,95.08
2022-09-24T14:37:21.932Z,94.55
2022-09-24T14:39:50.249Z,94.54
2022-09-24T14:42:32.166Z,94.79
2022-09-24T14:45:00.015Z,94.10
2022-09-24T14:47:32.966Z,93.31
2022-09-24T14:49:59.922Z,93.65
2022-09-24T14:52:37.874Z,93.78
2022-09-24T14:55:18.109Z,94.01
2022-09-24T14:57:49.064Z,93.74
2022-09-24T15:00:36.457Z,94.27
2022-09-24T15:03:17.337Z,94.13
2022-09-24T15:05:46.266Z,93.86
2022-09-24T15:08:12.963Z,94.15
2022-09-24T15:10:43.701Z,94.24
2022-09-24T15:13:14.410Z,94.18
2022-09-24T15:15:41.205Z,94.10
2022-09-24T15:18:11.402Z,93.84
2022-09-24T15:20:38.474Z,93.07
2022-09-24T15:23:05.335Z,92.15
2022-09-24T15:25:31.940Z,91.67
2022-09-24T15:27:59.437Z,92.77
2022-09-24T15:30:26.102Z,92.45
2022-09-24T15:32:52.831Z,92.09
2022-09-24T15:35:19.510Z,90.58
2022-09-24T15:37:46.276Z,92.04
2022-09-24T15:40:33.872Z,91.70
2022-09-24T15:43:00.582Z,91.53
2022-09-24T15:45:27.217Z,90.68
2022-09-24T15:47:54.090Z,91.25
2022-09-24T15:50:21.774Z,91.53
2022-09-24T15:52:57.526Z,91.63
2022-09-24T15:55:24.294Z,91.44
2022-09-24T15:57:51.112Z,90.97
2022-09-24T16:00:20.004Z,90.16
2022-09-24T16:02:51.174Z,90.84
2022-09-24T16:05:18.961Z,91.25
2022-09-24T16:07:45.930Z,90.57
2022-09-24T16:10:13.735Z,91.06
2022-09-24T16:12:41.542Z,91.19
2022-09-24T16:15:09.359Z,91.01
2022-09-24T16:17:35.999Z,91.14
2022-09-24T16:20:02.692Z,90.60
2022-09-24T16:22:29.327Z,90.42
2022-09-24T16:24:56.026Z,91.32
2022-09-24T16:27:23.160Z,90.91
2022-09-24T16:29:50.210Z,90.12
2022-09-24T16:32:16.898Z,89.86
2022-09-24T16:34:43.541Z,90.28
2022-09-24T16:37:10.369Z,90.29
2022-09-24T16:39:37.268Z,91.41
2022-09-24T16:42:04.061Z,92.07
2022-09-24T16:44:30.720Z,91.89
2022-09-24T16:46:57.485Z,91.79
2022-09-24T16:49:27.858Z,91.57
2022-09-24T16:51:54.482Z,91.96
2022-09-24T16:54:23.070Z,92.14
2022-09-24T16:56:52.993Z,92.35
2022-09-24T16:59:19.784Z,91.98
2022-09-24T17:01:46.607Z,91.72
2022-09-24T17:04:13.309Z,92.17
2022-09-24T17:06:40.414Z,92.56
2022-09-24T17:09:26.090Z,92.23
2022-09-24T17:11:52.719Z,91.88
2022-09-24T17:14:19.462Z,91.53
2022-09-24T17:16:46.205Z,91.50
2022-09-24T17:19:13.490Z,91.07
2022-09-24T17:21:41.742Z,90.76
2022-09-24T17:24:08.736Z,90.46
2022-09-24T17:26:35.887Z,89.82
2022-09-24T17:29:02.615Z,89.98
2022-09-24T17:31:29.331Z,90.02
2022-09-24T17:34:05.883Z,89.89
2022-09-24T17:36:34.033Z,90.20
2022-09-24T17:39:01.197Z,90.64
2022-09-24T17:41:31.641Z,90.39
2022-09-24T17:44:01.465Z,90.50
2022-09-24T17:46:30.247Z,90.43
2022-09-24T17:48:59.271Z,91.02
2022-09-24T17:51:28.545Z,91.23
2022-09-24T17:53:55.598Z,91.27
2022-09-24T17:56:24.252Z,91.35
2022-09-24T17:58:52.675Z,91.57
2022-09-24T18:01:28.145Z,91.49
2022-09-24T18:03:56.271Z,91.22
2022-09-24T18:06:27.107Z,91.45
2022-09-24T18:08:57.101Z,91.91
2022-09-24T18:11:34.629Z,91.92
2022-09-24T18:14:02.717Z,92.47
2022-09-24T18:16:33.111Z,92.97
2022-09-24T18:19:00.888Z,94.20
2022-09-24T18:21:28.588Z,95.19
2022-09-24T18:23:56.403Z,94.69
2022-09-24T18:26:25.503Z,94.37
2022-09-24T18:28:53.752Z,94.94
2022-09-24T18:31:22.102Z,95.19
2022-09-24T18:33:50.348Z,95.21
2022-09-24T18:36:20.194Z,95.28
2022-09-24T18:38:47.110Z,96.07
2022-09-24T18:41:22.322Z,97.78
2022-09-24T18:43:49.355Z,97.79
2022-09-24T18:46:17.236Z,97.14
2022-09-24T18:48:47.199Z,96.00
2022-09-24T18:51:25.125Z,95.35
2022-09-24T18:53:57.276Z,95.15
2022-09-24T18:56:24.457Z,94.88
2022-09-24T18:59:05.874Z,95.06
2022-09-24T19:01:35.592Z,94.70
2022-09-24T19:04:02.900Z,95.66
2022-09-24T19:06:30.118Z,95.97
2022-09-24T19:08:57.032Z,96.68
2022-09-24T19:11:23.694Z,96.71
2022-09-24T19:13:52.419Z,97.05
2022-09-24T19:16:20.987Z,97.12
2022-09-24T19:18:47.676Z,96.95
2022-09-24T19:21:15.681Z,97.73
2022-09-24T19:23:51.052Z,99.30
2022-09-24T19:26:23.197Z,100.00
2022-09-24T19:28:53.371Z,99.97
2022-09-24T19:31:22.719Z,100.00
2022-09-24T19:33:50.579Z,100.00
2022-09-24T19:36:17.697Z,100.00
2022-09-24T19:38:45.100Z,100.00
2022-09-24T19:41:13.570Z,100.00
2022-09-24T19:43:42.898Z,99.97
2022-09-24T19:46:14.841Z,100.00
2022-09-24T19:48:43.670Z,100.00
2022-09-24T19:51:15.986Z,99.49
2022-09-24T19:53:43.688Z,98.80
2022-09-24T19:56:11.221Z,98.16
2022-09-24T19:58:37.841Z,97.36
2022-09-24T20:01:06.676Z,97.52
2022-09-24T20:03:35.433Z,97.63
2022-09-24T20:06:09.981Z,98.36
2022-09-24T20:08:37.077Z,98.02
2022-09-24T20:11:05.415Z,98.57
2022-09-24T20:13:32.871Z,98.16
2022-09-24T20:16:01.103Z,98.88
2022-09-24T20:18:28.286Z,99.16
2022-09-24T20:20:55.322Z,99.59
2022-09-24T20:23:24.729Z,99.24
2022-09-24T20:26:10.400Z,99.28
2022-09-24T20:28:37.648Z,99.41
2022-09-24T20:31:12.323Z,99.59
2022-09-24T20:33:41.256Z,99.94
2022-09-24T20:36:15.198Z,100.00
2022-09-24T20:38:44.957Z,100.00
2022-09-24T20:41:19.731Z,100.00
2022-09-24T20:43:46.770Z,100.00
2022-09-24T20:46:18.877Z,100.00
2022-09-24T20:48:45.619Z,100.00
2022-09-24T20:51:14.528Z,100.00
2022-09-24T20:53:41.928Z,100.00
2022-09-24T20:56:09.362Z,100.00
2022-09-24T20:58:40.054Z,100.00
2022-09-24T21:01:07.520Z,100.00
2022-09-24T21:03:49.911Z,100.00
2022-09-24T21:06:18.028Z,100.00
2022-09-24T21:08:46.496Z,100.00
2022-09-24T21:11:18.532Z,100.00
2022-09-24T21:13:51.641Z,100.00
2022-09-24T21:16:23.608Z,100.00
2022-09-24T21:18:52.309Z,100.00
2022-09-24T21:21:30.504Z,100.00
2022-09-24T21:23:59.925Z,100.00
2022-09-24T21:26:30.524Z,100.00
2022-09-24T21:29:13.162Z,100.00
2022-09-24T21:31:40.225Z,100.00
2022-09-24T21:34:07.674Z,100.00
2022-09-24T21:36:44.078Z,100.00
2022-09-24T21:39:16.060Z,100.00
2022-09-24T21:41:43.783Z,100.00
2022-09-24T21:44:12.961Z,100.00
2022-09-24T21:46:40.622Z,100.00
2022-09-24T21:49:07.424Z,100.00
2022-09-24T21:51:34.111Z,100.00
2022-09-24T21:54:02.647Z,100.00
2022-09-24T21:56:31.305Z,100.00
2022-09-24T21:58:58.362Z,100.00
2022-09-24T22:01:27.922Z,100.00
2022-09-24T22:03:55.966Z,99.65
2022-09-24T22:06:30.097Z,100.00
2022-09-24T22:09:02.597Z,99.33
2022-09-24T22:11:29.354Z,99.13
2022-09-24T22:14:02.957Z,99.47
2022-09-24T22:16:34.974Z,99.80
2022-09-24T22:19:03.618Z,98.36
2022-09-24T22:21:30.410Z,98.54
2022-09-24T22:23:57.391Z,99.58
2022-09-24T22:26:26.208Z,99.37
2022-09-24T22:28:54.041Z,99.94
2022-09-24T22:31:20.805Z,100.00
2022-09-24T22:34:05.908Z,100.00
2022-09-24T22:36:33.600Z,100.00
2022-09-24T22:39:00.900Z,100.00
2022-09-24T22:41:29.078Z,100.00
2022-09-24T22:43:57.163Z,100.00
2022-09-24T22:46:27.758Z,100.00
2022-09-24T22:48:55.978Z,99.86
2022-09-24T22:51:23.800Z,99.48
2022-09-24T22:53:50.522Z,99.55
2022-09-24T22:56:19.854Z,99.33
2022-09-24T22:58:51.839Z,98.71
2022-09-24T23:01:23.931Z,98.29
2022-09-24T23:03:52.265Z,99.61
2022-09-24T23:06:20.995Z,100.00
2022-09-24T23:08:48.513Z,100.00
2022-09-24T23:11:20.539Z,100.00
2022-09-24T23:13:52.663Z,100.00
2022-09-24T23:16:25.226Z,100.00
2022-09-24T23:18:54.186Z,100.00
2022-09-24T23:21:22.630Z,100.00
2022-09-24T23:23:54.055Z,100.00
2022-09-24T23:26:22.277Z,100.00
2022-09-24T23:28:51.115Z,99.37
2022-09-24T23:31:21.040Z,98.80
2022-09-24T23:33:48.189Z,98.28
2022-09-24T23:36:15.632Z,99.08
2022-09-24T23:38:43.044Z,99.89
2022-09-24T23:41:10.555Z,99.73
2022-09-24T23:43:37.467Z,98.96
2022-09-24T23:46:04.832Z,98.49
2022-09-24T23:48:31.951Z,99.17
2022-09-24T23:50:58.653Z,98.88
2022-09-24T23:53:25.934Z,99.24
2022-09-24T23:55:54.156Z,98.75
2022-09-24T23:58:22.541Z,97.35
